Time;durP1;ratioP1;P1;durP2;ratioP2;P2;SDS_P1;SDS_P2;PMS_P1;PMS_P2;Temp;Humidity;BMP_temperature;BMP_pressure;BME280_temperature;BME280_humidity;BME280_pressure;Samples;Min_cycle;Max_cycle;Signal;HPM_P1;HPM_P2
2022/05/24 00:00:33;;;;;;;35.20;3.35;;;;;;;24.35;42.80;98015.78;7309652;19;129395;-39
2022/05/24 00:03:00;;;;;;;18.08;2.05;;;;;;;24.35;43.17;98021.84;7308697;19;129466;-40
2022/05/24 00:05:27;;;;;;;40.38;3.70;;;;;;;24.37;43.04;98019.84;7308974;19;129467;-39
2022/05/24 00:07:53;;;;;;;24.75;2.25;;;;;;;24.37;42.73;98019.03;7305367;19;131528;-40
2022/05/24 00:10:22;;;;;;;10.77;1.13;;;;;;;24.35;42.50;98027.09;7305070;19;154725;-38
2022/05/24 00:12:48;;;;;;;47.13;4.28;;;;;;;24.35;42.47;98021.84;7307962;19;129430;-40
2022/05/24 00:15:19;;;;;;;23.07;2.00;;;;;;;24.39;42.50;98017.81;7309987;19;130148;-40
2022/05/24 00:17:52;;;;;;;31.23;3.25;;;;;;;24.39;42.40;98012.56;7305947;19;130405;-40
2022/05/24 00:20:17;;;;;;;23.45;1.95;;;;;;;24.38;43.31;98024.09;7309326;19;129281;-39
2022/05/24 00:22:43;;;;;;;62.67;5.53;;;;;;;24.38;42.70;98020.63;7306682;19;140985;-39
2022/05/24 00:25:08;;;;;;;32.75;2.65;;;;;;;24.39;42.52;98017.03;7306876;19;158378;-41
2022/05/24 00:27:34;;;;;;;36.20;3.13;;;;;;;24.38;42.84;98021.47;7303845;19;131949;-37
2022/05/24 00:29:59;;;;;;;31.97;2.67;;;;;;;24.38;43.16;98016.22;7303559;19;154943;-40
2022/05/24 00:32:24;;;;;;;36.07;3.30;;;;;;;24.38;42.40;98015.38;7306950;19;143969;-40
2022/05/24 00:34:50;;;;;;;44.30;4.13;;;;;;;24.35;42.43;98021.84;7306027;19;133887;-39
2022/05/24 00:37:19;;;;;;;29.17;2.53;;;;;;;24.37;42.42;98019.84;7307108;19;129790;-38
2022/05/24 00:39:46;;;;;;;24.63;2.47;;;;;;;24.39;43.16;98017.03;7306035;19;130380;-38
2022/05/24 00:42:21;;;;;;;10.50;1.17;;;;;;;24.38;43.12;98012.75;7308930;19;129423;-39
2022/05/24 00:44:53;;;;;;;38.17;3.38;;;;;;;24.36;42.81;98018.22;7306475;19;130894;-35
2022/05/24 00:47:30;;;;;;;36.90;3.17;;;;;;;24.39;42.98;98017.81;7305720;19;130994;-41
2022/05/24 00:49:59;;;;;;;34.23;3.60;;;;;;;24.40;43.01;98013.38;7304965;19;131495;-41
2022/05/24 00:52:29;;;;;;;14.07;1.45;;;;;;;24.30;42.92;98002.41;7307130;19;129064;-40
2022/05/24 00:54:54;;;;;;;41.17;3.72;;;;;;;24.39;42.53;98028.31;7306892;19;131401;-38
2022/05/24 00:57:31;;;;;;;23.30;2.17;;;;;;;24.36;43.17;98022.69;7305661;19;130529;-38
2022/05/24 01:00:18;;;;;;;45.85;4.18;;;;;;;24.38;42.96;98031.97;7306510;19;129879;-40
2022/05/24 01:02:44;;;;;;;25.23;2.17;;;;;;;24.39;42.83;98030.94;7307921;19;128903;-40
2022/05/24 01:05:14;;;;;;;33.97;3.03;;;;;;;24.37;43.03;98025.09;7307680;19;130247;-40
2022/05/24 01:07:39;;;;;;;27.25;2.38;;;;;;;24.32;43.25;98011.75;7306722;19;130580;-40
2022/05/24 01:10:09;;;;;;;49.50;4.33;;;;;;;24.34;42.51;98017.63;7302126;19;155212;-40
2022/05/24 01:12:44;;;;;;;22.67;1.98;;;;;;;24.41;42.67;98030.78;7308638;19;130436;-39
2022/05/24 01:15:11;;;;;;;56.20;5.00;;;;;;;24.38;43.01;98029.34;7306086;19;129861;-41
2022/05/24 01:17:38;;;;;;;22.05;2.05;;;;;;;24.38;43.29;98024.09;7303681;19;131019;-40
2022/05/24 01:20:05;;;;;;;37.85;3.35;;;;;;;24.38;42.83;98026.72;7305677;19;129322;-38
2022/05/24 01:22:49;;;;;;;32.38;2.72;;;;;;;24.39;43.04;98030.16;7308300;19;129173;-38
2022/05/24 01:25:51;;;;;;;55.75;4.97;;;;;;;24.39;42.74;98033.56;7304206;19;158557;-39
2022/05/24 01:28:26;;;;;;;38.92;3.35;;;;;;;24.38;42.67;98031.97;7304487;19;130285;-38
2022/05/24 01:30:53;;;;;;;27.55;2.40;;;;;;;24.38;43.34;98031.97;7307309;19;130024;-39
2022/05/24 01:36:10;;;;;;;18.50;1.70;;;;;;;24.40;43.27;98040.47;7308081;19;130493;-39
2022/05/24 01:38:39;;;;;;;24.02;2.13;;;;;;;24.41;42.63;98036.81;7310086;19;129728;-38
2022/05/24 01:41:05;;;;;;;21.77;2.30;;;;;;;24.40;42.58;98032.59;7314292;19;130160;-40
2022/05/24 01:43:31;;;;;;;27.77;2.33;;;;;;;24.40;42.99;98032.59;7314774;19;130958;-41
2022/05/24 01:46:03;;;;;;;41.00;3.53;;;;;;;24.41;42.74;98036.81;7313237;19;129806;-39
2022/05/24 01:48:35;;;;;;;59.30;5.13;;;;;;;24.43;42.62;98034.81;7309220;19;130922;-39
2022/05/24 01:51:03;;;;;;;24.00;2.17;;;;;;;24.41;42.69;98036.81;7313306;19;129482;-40
2022/05/24 01:53:36;;;;;;;51.67;4.63;;;;;;;24.42;42.27;98033.22;7312883;19;129394;-40
2022/05/24 01:56:06;;;;;;;13.68;1.42;;;;;;;24.41;42.69;98036.81;7313623;19;129371;-41
2022/05/24 01:58:35;;;;;;;48.03;4.22;;;;;;;24.44;43.19;98039.06;7306763;19;130777;-38
2022/05/24 02:01:21;;;;;;;21.90;1.83;;;;;;;24.43;42.57;98041.88;7311360;19;130134;-40
2022/05/24 02:03:47;;;;;;;47.40;4.03;;;;;;;24.41;42.76;98042.09;7313092;19;129599;-41
2022/05/24 02:06:24;;;;;;;29.67;2.70;;;;;;;24.44;42.19;98041.69;7311496;19;153170;-40
2022/05/24 02:08:50;;;;;;;34.63;3.13;;;;;;;24.40;42.37;98050.97;7311396;19;131040;-37
2022/05/24 02:11:20;;;;;;;13.37;1.40;;;;;;;24.41;42.47;98052.59;7312671;19;131063;-40
2022/05/24 02:13:47;;;;;;;24.83;2.38;;;;;;;24.41;42.88;98047.34;7313654;19;129363;-41
2022/05/24 02:16:15;;;;;;;;;;;;;;;24.40;43.14;98056.22;7311333;19;129963;-38
2022/05/24 02:18:43;;;;;;;27.07;2.77;;;;;;;24.39;42.76;98054.59;7310134;19;130631;-40
2022/05/24 02:21:09;;;;;;;24.50;2.05;;;;;;;24.41;42.43;98052.59;7312834;19;129390;-38
2022/05/24 02:23:43;;;;;;;41.50;3.63;;;;;;;24.42;42.62;98054.22;7312503;19;129178;-41
2022/05/24 02:26:09;;;;;;;35.30;3.03;;;;;;;24.44;42.69;98057.44;7310846;19;132221;-40
2022/05/24 02:28:35;;;;;;;52.67;4.57;;;;;;;24.44;42.92;98062.69;7308630;19;130877;-40
2022/05/24 02:31:05;;;;;;;21.43;2.00;;;;;;;24.43;42.66;98061.09;7312685;19;154790;-41
2022/05/24 02:33:32;;;;;;;25.08;2.33;;;;;;;24.42;43.04;98064.72;7313401;19;129413;-40
2022/05/24 02:35:57;;;;;;;15.32;1.40;;;;;;;24.44;42.74;98062.69;7312066;19;130165;-41
2022/05/24 02:38:22;;;;;;;46.43;4.13;;;;;;;24.44;42.89;98057.44;7309566;19;131112;-41
2022/05/24 02:43:32;;;;;;;35.95;3.28;;;;;;;24.41;42.45;98060.47;7311651;19;129353;-37
2022/05/24 02:45:58;;;;;;;30.87;2.70;;;;;;;24.44;42.36;98067.16;7310935;19;130779;-41
2022/05/24 02:48:23;;;;;;;22.75;2.05;;;;;;;24.44;43.11;98073.22;7308050;19;130361;-37
2022/05/24 02:50:48;;;;;;;37.33;3.70;;;;;;;24.43;43.04;98074.22;7309730;19;130566;-41
2022/05/24 02:53:14;;;;;;;33.78;2.90;;;;;;;24.43;43.05;98066.34;7312601;19;131406;-40
2022/05/24 02:55:39;;;;;;;35.57;3.27;;;;;;;24.44;43.01;98075.84;7310047;19;130129;-38
2022/05/24 02:58:05;;;;;;;23.93;2.17;;;;;;;24.45;42.43;98066.97;7308440;19;143360;-40
2022/05/24 03:00:30;;;;;;;29.55;2.55;;;;;;;24.44;42.59;98067.16;7310141;19;154518;-38
2022/05/24 03:02:56;;;;;;;35.25;3.30;;;;;;;24.44;42.98;98070.59;7310289;19;129102;-38
2022/05/24 03:05:23;;;;;;;46.67;3.87;;;;;;;24.44;42.87;98069.78;7310593;19;129225;-38
2022/05/24 03:10:33;;;;;;;22.77;2.50;;;;;;;24.38;42.65;98067.91;7307829;19;130628;-38
2022/05/24 03:15:44;;;;;;;41.55;3.75;;;;;;;24.46;42.26;98084.34;7306084;19;129430;-38
2022/05/24 03:18:11;;;;;;;25.67;2.17;;;;;;;24.43;42.68;98087.38;7308159;19;130778;-40
2022/05/24 03:20:37;;;;;;;29.15;2.63;;;;;;;24.44;42.57;98088.97;7310551;19;129896;-40
2022/05/24 03:23:03;;;;;;;37.22;3.40;;;;;;;24.45;42.78;98087.97;7308524;19;129293;-37
2022/05/24 03:25:31;;;;;;;50.27;4.50;;;;;;;24.37;42.63;98082.91;7310512;19;129494;-39
2022/05/24 03:27:56;;;;;;;51.28;4.35;;;;;;;24.45;43.14;98101.13;7307444;19;130522;-39
2022/05/24 03:30:21;;;;;;;22.30;2.03;;;;;;;24.45;42.87;98101.13;7307238;19;129497;-41
2022/05/24 03:32:49;;;;;;;34.23;3.20;;;;;;;24.45;43.13;98105.56;7306050;19;154063;-38
2022/05/24 03:35:14;;;;;;;35.85;3.15;;;;;;;24.44;42.66;98109.19;7309621;19;132064;-38
2022/05/24 03:37:41;;;;;;;45.90;4.00;;;;;;;24.45;42.94;98109.00;7306908;19;130727;-40
2022/05/24 03:40:09;;;;;;;55.08;5.18;;;;;;;24.45;43.17;98111.63;7308364;19;128985;-38
2022/05/24 03:42:34;;;;;;;18.80;1.80;;;;;;;24.45;42.96;98109.00;7308477;19;129470;-41
2022/05/24 03:45:00;;;;;;;38.37;3.40;;;;;;;24.43;42.56;98116.25;7309124;19;130802;-39
2022/05/24 03:47:25;;;;;;;44.40;4.07;;;;;;;24.44;42.36;98115.25;7304736;19;129617;-39
2022/05/24 03:49:50;;;;;;;22.13;1.73;;;;;;;24.45;42.81;98118.69;7307072;19;154439;-40
2022/05/24 03:52:16;;;;;;;43.03;4.13;;;;;;;24.45;43.10;98127.41;7305000;19;154112;-40
2022/05/24 03:54:41;;;;;;;82.40;7.13;;;;;;;24.48;42.98;98120.13;7300235;19;129981;-37
2022/05/24 03:59:50;;;;;;;40.75;3.45;;;;;;;24.45;42.68;98126.56;7307938;19;129948;-36
2022/05/24 04:02:16;;;;;;;31.87;2.83;;;;;;;24.45;42.35;98119.50;7307380;19;129207;-41
2022/05/24 04:04:41;;;;;;;30.47;2.83;;;;;;;24.46;43.10;98122.97;7308489;19;157307;-40
2022/05/24 04:07:06;;;;;;;25.17;2.27;;;;;;;24.48;42.73;98122.75;7305696;19;158815;-42
2022/05/24 04:09:33;;;;;;;17.47;1.63;;;;;;;24.46;42.41;98121.13;7307702;19;132877;-40
2022/05/24 04:11:58;;;;;;;27.98;2.25;;;;;;;24.48;42.71;98120.13;7311790;19;129490;-41
2022/05/24 04:14:23;;;;;;;48.35;4.07;;;;;;;24.40;42.69;98100.06;7307980;19;158176;-39
2022/05/24 04:16:49;;;;;;;21.97;2.07;;;;;;;24.46;42.97;98118.50;7307726;19;157199;-40
2022/05/24 04:19:14;;;;;;;28.05;2.72;;;;;;;24.46;42.41;98118.50;7309978;19;129341;-38
2022/05/24 04:21:39;;;;;;;42.57;3.63;;;;;;;24.45;42.63;98127.41;7304709;19;154001;-41
2022/05/24 04:24:05;;;;;;;24.57;2.27;;;;;;;24.45;42.43;98132.66;7307742;19;158916;-40
2022/05/24 04:26:31;;;;;;;28.45;2.53;;;;;;;24.47;42.65;98129.81;7305676;19;131831;-39
2022/05/24 04:28:57;;;;;;;34.10;2.97;;;;;;;24.51;43.34;98130.25;7307692;19;129725;-38
2022/05/24 04:31:23;;;;;;;8.98;1.10;;;;;;;24.52;43.24;98134.50;7309570;19;129049;-40
2022/05/24 04:33:48;;;;;;;39.70;3.73;;;;;;;24.51;43.41;98146.03;7306545;19;130770;-41
2022/05/24 04:36:13;;;;;;;97.63;8.93;;;;;;;24.51;43.35;98146.03;7299402;19;136787;-35
2022/05/24 04:38:38;;;;;;;35.58;3.28;;;;;;;24.44;43.24;98133.63;7289770;19;141222;-37
2022/05/24 04:43:48;;;;;;;38.78;3.60;;;;;;;24.49;42.46;98152.25;7307462;19;131574;-41
2022/05/24 04:46:13;;;;;;;33.43;3.33;;;;;;;24.51;42.85;98156.53;7303926;19;157703;-37
2022/05/24 04:48:38;;;;;;;33.80;2.90;;;;;;;24.49;42.41;98154.88;7305008;19;154822;-40
2022/05/24 04:51:03;;;;;;;41.47;3.70;;;;;;;24.51;43.07;98161.78;7303426;19;150432;-39
2022/05/24 04:53:29;;;;;;;28.43;2.50;;;;;;;24.49;42.72;98165.41;7309073;19;142386;-40
2022/05/24 04:55:54;;;;;;;26.07;2.77;;;;;;;24.49;42.99;98165.41;7308231;19;130252;-40
2022/05/24 04:58:20;;;;;;;25.67;2.40;;;;;;;24.49;43.10;98170.66;7300218;19;154718;-41
2022/05/24 05:00:48;;;;;;;46.70;4.05;;;;;;;24.52;43.07;98173.91;7307611;19;130091;-39
2022/05/24 05:03:14;;;;;;;27.05;2.72;;;;;;;24.51;42.34;98162.56;7306174;19;131165;-40
2022/05/24 05:05:40;;;;;;;42.95;3.50;;;;;;;24.51;43.04;98169.66;7303814;19;129345;-39
2022/05/24 05:08:07;;;;;;;38.40;3.33;;;;;;;24.50;42.21;98163.59;7305098;19;129538;-39
2022/05/24 05:10:36;;;;;;;43.35;3.75;;;;;;;24.52;42.60;98171.28;7304142;19;129362;-39
2022/05/24 05:13:02;;;;;;;40.15;3.53;;;;;;;24.49;42.73;98173.28;7310248;19;129536;-39
2022/05/24 05:15:28;;;;;;;51.60;4.77;;;;;;;24.49;42.97;98170.66;7313937;19;129408;-40
2022/05/24 05:18:02;;;;;;;34.63;3.10;;;;;;;24.51;42.67;98167.03;7306468;19;129068;-40
2022/05/24 05:20:28;;;;;;;31.98;2.95;;;;;;;24.51;42.64;98177.56;7315101;19;129433;-38
2022/05/24 05:22:53;;;;;;;27.67;2.40;;;;;;;24.52;42.88;98160.75;7314897;19;159354;-41
2022/05/24 05:25:19;;;;;;;46.50;3.97;;;;;;;24.51;42.44;98169.66;7313851;19;129420;-36
2022/05/24 05:27:44;;;;;;;30.13;2.73;;;;;;;24.49;42.50;98169.88;7310763;19;130273;-36
2022/05/24 05:32:54;;;;;;;46.03;4.32;;;;;;;24.49;42.76;98191.66;7313821;19;130635;-41
2022/05/24 05:35:19;;;;;;;50.63;4.90;;;;;;;24.49;43.10;98185.63;7312751;19;158671;-40
2022/05/24 05:37:45;;;;;;;34.28;3.20;;;;;;;24.50;42.62;98192.50;7313345;19;135514;-39
2022/05/24 05:40:11;;;;;;;27.35;2.10;;;;;;;24.43;43.31;98179.31;7316021;19;129384;-38
2022/05/24 05:42:37;;;;;;;31.43;3.10;;;;;;;24.51;43.16;98195.94;7315350;19;130121;-39
2022/05/24 05:45:03;;;;;;;26.15;2.20;;;;;;;24.49;42.76;98191.66;7311868;19;130419;-39
2022/05/24 05:47:28;;;;;;;20.42;1.88;;;;;;;24.52;42.39;98189.66;7310546;19;130499;-41
2022/05/24 05:49:54;;;;;;;61.13;5.27;;;;;;;24.51;42.88;98194.09;7303456;19;153930;-37
2022/05/24 05:52:19;;;;;;;32.13;2.57;;;;;;;24.52;42.58;98194.94;7308176;19;156745;-39
2022/05/24 05:54:44;;;;;;;35.70;3.07;;;;;;;24.52;42.86;98187.03;7307123;19;130374;-40
2022/05/24 05:57:11;;;;;;;24.80;2.70;;;;;;;24.45;42.58;98174.69;7311262;19;153096;-39
2022/05/24 05:59:37;;;;;;;23.40;2.15;;;;;;;24.52;42.50;98194.94;7315304;19;129370;-34
2022/05/24 06:02:04;;;;;;;28.60;2.57;;;;;;;24.51;42.89;98198.56;7314098;19;158735;-39
2022/05/24 06:04:30;;;;;;;21.00;1.90;;;;;;;24.53;43.02;98205.25;7316199;19;129496;-38
2022/05/24 06:06:55;;;;;;;15.40;1.57;;;;;;;24.54;42.63;98206.06;7313031;19;129408;-37
2022/05/24 06:09:20;;;;;;;19.83;1.93;;;;;;;24.53;42.53;98207.88;7313461;19;147482;-39
2022/05/24 06:11:45;;;;;;;26.77;2.50;;;;;;;24.54;42.22;98219.19;7315003;19;131139;-39
2022/05/24 06:14:11;;;;;;;53.70;4.82;;;;;;;24.51;42.56;98219.59;7312978;19;154140;-40
2022/05/24 06:16:37;;;;;;;26.33;2.20;;;;;;;24.51;42.56;98214.34;7312113;19;154938;-40
2022/05/24 06:19:04;;;;;;;25.05;2.40;;;;;;;24.51;42.78;98219.59;7314868;19;129663;-38
2022/05/24 06:21:33;;;;;;;24.05;2.13;;;;;;;24.52;42.88;98231.72;7314616;19;130379;-41
2022/05/24 06:23:59;;;;;;;22.92;2.08;;;;;;;24.54;42.58;98237.59;7313318;19;130427;-39
2022/05/24 06:26:25;;;;;;;24.90;2.30;;;;;;;24.53;42.56;98235.97;7313042;19;131335;-40
2022/05/24 06:28:50;;;;;;;28.13;2.43;;;;;;;24.54;42.78;98234.97;7312731;19;129670;-38
2022/05/24 06:31:15;;;;;;;37.43;3.53;;;;;;;24.54;42.59;98237.59;7307663;19;157430;-40
2022/05/24 06:33:40;;;;;;;31.07;2.80;;;;;;;24.53;42.43;98244.66;7313903;19;130959;-38
2022/05/24 06:36:06;;;;;;;26.47;2.40;;;;;;;24.52;42.52;98255.34;7310591;19;138911;-41
2022/05/24 06:38:32;;;;;;;19.38;1.83;;;;;;;24.49;42.26;98244.22;7312359;19;129062;-38
2022/05/24 06:40:57;;;;;;;29.70;2.73;;;;;;;24.52;43.00;98253.56;7314259;19;130103;-39
2022/05/24 06:43:22;;;;;;;21.63;1.93;;;;;;;24.52;42.50;98250.09;7311973;19;158482;-40
2022/05/24 06:45:47;;;;;;;35.23;3.07;;;;;;;24.52;42.15;98255.34;7312355;19;154664;-38
2022/05/24 06:48:13;;;;;;;15.00;1.40;;;;;;;24.49;42.32;98244.22;7309827;19;154539;-39
2022/05/24 06:50:40;;;;;;;25.13;2.23;;;;;;;24.53;42.79;98249.13;7309092;19;158369;-41
2022/05/24 06:53:06;;;;;;;20.70;1.70;;;;;;;24.55;42.27;98262.84;7314631;19;129843;-40
2022/05/24 06:55:31;;;;;;;47.13;4.43;;;;;;;24.44;42.79;98243.97;7312243;19;129215;-39
2022/05/24 06:57:56;;;;;;;38.17;3.28;;;;;;;24.54;42.49;98263.88;7306472;19;129429;-42
2022/05/24 07:03:13;;;;;;;25.35;2.38;;;;;;;24.52;42.42;98274.56;7311841;19;130443;-40
2022/05/24 07:05:38;;;;;;;31.55;2.80;;;;;;;24.55;42.41;98270.75;7306389;19;129927;-37
2022/05/24 07:08:04;;;;;;;69.93;6.23;;;;;;;24.51;42.63;98272.94;7300641;19;130938;-40
2022/05/24 07:10:31;;;;;;;24.50;2.15;;;;;;;24.52;42.52;98273.75;7305513;19;130891;-40
2022/05/24 07:13:07;;;;;;;;;;;;;;;24.51;42.76;98278.19;7312467;19;132378;-41
2022/05/24 07:15:33;;;;;;;31.90;2.85;;;;;;;24.44;42.95;98275.50;7312696;19;129077;-37
2022/05/24 07:17:58;;;;;;;13.50;1.37;;;;;;;24.53;42.62;98280.66;7310719;19;129321;-41
2022/05/24 07:20:25;;;;;;;20.02;1.90;;;;;;;24.53;42.80;98288.53;7312208;19;130095;-38
2022/05/24 07:22:51;;;;;;;29.42;2.55;;;;;;;24.53;42.32;98286.69;7312390;19;129385;-39
2022/05/24 07:25:17;;;;;;;25.50;2.37;;;;;;;24.52;42.17;98290.34;7311887;19;129166;-41
2022/05/24 07:27:42;;;;;;;28.17;2.50;;;;;;;24.55;42.85;98294.38;7311143;19;129056;-40
2022/05/24 07:30:08;;;;;;;35.23;3.03;;;;;;;24.54;42.05;98298.03;7310642;19;129620;-38
2022/05/24 07:32:34;;;;;;;6.25;0.75;;;;;;;24.55;42.36;98307.53;7313508;19;129272;-40
2022/05/24 07:35:00;;;;;;;29.52;2.50;;;;;;;24.53;42.59;98301.66;7310391;19;130167;-40
2022/05/24 07:37:25;;;;;;;18.43;1.53;;;;;;;24.52;42.74;98307.91;7310693;19;128943;-41
2022/05/24 07:45:47;;;;;;;17.63;1.87;;;;;;;24.52;42.45;98292.97;7311647;19;129388;-39
2022/05/24 07:48:04;;;;;;;23.92;2.13;;;;;;;24.55;42.14;98299.66;7310622;19;129097;-39
2022/05/24 07:50:30;;;;;;;24.27;2.03;;;;;;;24.54;43.12;98308.53;7309568;19;129557;-40
2022/05/24 07:52:55;;;;;;;27.02;2.72;;;;;;;24.55;42.71;98307.53;7311329;19;159622;-38
2022/05/24 07:55:20;;;;;;;44.07;3.90;;;;;;;24.54;42.63;98305.91;7309399;19;153820;-41
2022/05/24 07:57:45;;;;;;;26.50;2.37;;;;;;;24.53;42.35;98306.94;7309528;19;154000;-40
2022/05/24 08:00:12;;;;;;;18.70;1.90;;;;;;;24.48;42.43;98310.09;7310134;19;158827;-38
2022/05/24 08:02:38;;;;;;;24.83;2.20;;;;;;;24.55;42.85;98325.91;7311697;19;132791;-40
2022/05/24 08:05:05;;;;;;;30.73;2.80;;;;;;;24.50;42.61;98329.13;7311148;19;129134;-40
2022/05/24 08:07:31;;;;;;;24.42;2.17;;;;;;;24.55;42.39;98326.75;7308952;19;130247;-40
2022/05/24 08:09:56;;;;;;;44.07;3.83;;;;;;;24.46;42.18;98318.16;7309863;19;130713;-40
2022/05/24 08:12:22;;;;;;;20.90;1.92;;;;;;;24.54;42.46;98330.38;7311517;19;129804;-39
2022/05/24 08:14:47;;;;;;;26.70;2.40;;;;;;;24.54;42.49;98321.69;7311161;19;128849;-38
2022/05/24 08:17:13;;;;;;;27.00;2.47;;;;;;;24.55;42.08;98320.66;7307050;19;154167;-40
2022/05/24 08:19:38;;;;;;;24.50;2.20;;;;;;;24.51;42.26;98314.19;7304438;19;159693;-39
2022/05/24 08:22:03;;;;;;;22.93;1.87;;;;;;;24.58;42.80;98329.00;7307921;19;158447;-38
2022/05/24 08:24:29;;;;;;;35.33;3.50;;;;;;;24.58;42.55;98336.09;7308651;19;128852;-40
2022/05/24 08:26:54;;;;;;;24.73;2.37;;;;;;;24.54;42.61;98317.25;7302421;19;154264;-40
2022/05/24 08:29:19;;;;;;;26.25;2.42;;;;;;;24.57;42.13;98327.38;7310174;19;140521;-41
2022/05/24 08:31:44;;;;;;;66.93;5.93;;;;;;;24.54;42.53;98329.56;7303096;19;158392;-41
2022/05/24 08:34:10;;;;;;;36.53;3.08;;;;;;;24.55;42.55;98336.44;7304266;19;154812;-40
2022/05/24 08:36:35;;;;;;;30.00;2.80;;;;;;;24.54;42.57;98342.69;7306558;19;130689;-40
2022/05/24 08:39:01;;;;;;;20.87;1.70;;;;;;;24.55;42.44;98346.94;7312289;19;130136;-38
2022/05/24 08:41:26;;;;;;;18.97;1.70;;;;;;;24.55;42.22;98349.56;7306767;19;131081;-40
2022/05/24 08:48:22;;;;;;;31.43;3.03;;;;;;;24.56;42.65;98348.59;7308515;19;155325;-39
2022/05/24 08:49:37;;;;;;;20.00;1.77;;;;;;;24.58;42.46;98352.63;7323366;19;129439;-38
2022/05/24 08:52:04;;;;;;;21.75;1.88;;;;;;;24.57;42.63;98361.53;7319414;19;132376;-39
2022/05/24 08:54:45;;;;;;;24.17;2.15;;;;;;;24.58;42.35;98362.34;7324217;19;129144;-39
2022/05/24 08:57:15;;;;;;;41.97;3.58;;;;;;;24.57;42.26;98350.19;7319908;19;129477;-39
2022/05/24 08:59:47;;;;;;;22.40;2.00;;;;;;;24.58;42.33;98346.59;7324393;19;129461;-37
2022/05/24 09:02:13;;;;;;;17.33;1.70;;;;;;;24.58;42.12;98346.59;7322774;19;129498;-40
2022/05/24 09:04:38;;;;;;;34.37;2.97;;;;;;;24.56;43.07;98349.38;7324588;19;129296;-41
2022/05/24 09:07:15;;;;;;;57.93;5.50;;;;;;;24.58;42.67;98357.09;7317158;19;132721;-37
2022/05/24 09:09:59;;;;;;;;;;;;;;;24.56;42.27;98352.00;7313957;19;130757;-40
2022/05/24 09:12:44;;;;;;;26.65;2.40;;;;;;;24.59;42.52;98369.22;7324143;19;132254;-39
2022/05/24 09:15:26;;;;;;;27.30;2.53;;;;;;;24.57;42.59;98372.03;7323055;19;128768;-39
2022/05/24 09:18:11;;;;;;;23.08;2.10;;;;;;;24.54;42.58;98367.16;7322146;19;129424;-38
2022/05/24 09:20:44;;;;;;;21.33;1.92;;;;;;;24.58;42.29;98372.88;7323091;19;129180;-38
2022/05/24 09:23:24;;;;;;;28.50;2.63;;;;;;;24.60;42.25;98376.09;7324076;19;131363;-39
2022/05/24 09:25:56;;;;;;;42.10;3.80;;;;;;;24.56;42.36;98375.66;7321359;19;129581;-40
2022/05/24 09:28:42;;;;;;;27.42;2.67;;;;;;;24.56;42.49;98380.13;7319781;19;129052;-37
2022/05/24 09:31:12;;;;;;;27.52;2.53;;;;;;;24.56;42.41;98386.16;7320932;19;129960;-38
2022/05/24 09:33:41;;;;;;;28.75;2.50;;;;;;;24.50;42.08;98371.16;7322907;19;129769;-41
2022/05/24 09:36:06;;;;;;;32.80;2.97;;;;;;;24.59;42.47;98387.63;7321730;19;129299;-40
2022/05/24 09:38:39;;;;;;;22.87;2.07;;;;;;;24.58;42.57;98386.00;7320420;19;150473;-38
2022/05/24 09:41:22;;;;;;;18.65;1.70;;;;;;;24.56;42.30;98375.66;7321630;19;158305;-39
2022/05/24 09:44:01;;;;;;;31.50;2.70;;;;;;;24.56;42.21;98361.72;7322997;19;130053;-40
2022/05/24 09:46:28;;;;;;;16.40;1.58;;;;;;;24.58;42.37;98362.34;7321096;19;129483;-40
2022/05/24 09:48:58;;;;;;;24.13;1.90;;;;;;;24.59;42.58;98370.06;7320618;19;129391;-38
2022/05/24 09:51:38;;;;;;;19.50;1.70;;;;;;;24.58;42.17;98378.13;7321074;19;129169;-39
2022/05/24 09:54:06;;;;;;;19.88;1.67;;;;;;;24.60;42.27;98376.09;7320326;19;129818;-38
2022/05/24 09:56:34;;;;;;;10.95;1.13;;;;;;;24.60;42.71;98370.84;7321508;19;128761;-38
2022/05/24 09:59:06;;;;;;;29.80;2.47;;;;;;;24.61;42.04;98383.00;7316165;19;129031;-40
2022/05/24 10:01:43;;;;;;;19.63;1.77;;;;;;;24.59;41.94;98380.56;7316004;19;130883;-38
2022/05/24 10:04:33;;;;;;;21.50;1.77;;;;;;;24.58;41.93;98378.13;7310355;19;130475;-38
2022/05/24 10:07:25;;;;;;;34.47;3.08;;;;;;;24.56;42.27;98374.88;7313539;19;129657;-37
2022/05/24 10:10:01;;;;;;;28.30;2.38;;;;;;;24.58;42.57;98378.13;7309397;19;129337;-39
2022/05/24 10:12:32;;;;;;;23.63;2.00;;;;;;;24.58;42.04;98383.38;7315502;19;131281;-39
2022/05/24 10:15:28;;;;;;;23.77;2.10;;;;;;;24.55;42.37;98379.31;7309621;19;157441;-40
2022/05/24 10:18:21;;;;;;;30.08;2.47;;;;;;;24.55;42.69;98375.84;7313588;19;129034;-38
2022/05/24 10:21:08;;;;;;;23.45;2.10;;;;;;;24.58;42.63;98383.38;7311997;19;129275;-39
2022/05/24 10:23:57;;;;;;;55.10;5.22;;;;;;;24.58;42.32;98388.63;7309925;19;129598;-39
2022/05/24 10:26:46;;;;;;;24.67;2.08;;;;;;;24.60;42.07;98386.59;7312213;19;130898;-38
2022/05/24 10:29:51;;;;;;;26.33;2.17;;;;;;;24.59;42.25;98383.19;7309854;19;131155;-39
2022/05/24 10:38:44;;;;;;;29.33;2.67;;;;;;;24.58;42.29;98378.91;7307760;19;129084;-37
2022/05/24 10:41:15;;;;;;;23.02;2.03;;;;;;;24.59;42.58;98383.19;7313440;19;129586;-40
2022/05/24 10:43:52;;;;;;;26.90;2.33;;;;;;;24.50;42.65;98360.66;7313000;19;129385;-37
2022/05/24 10:46:22;;;;;;;;;;;;;;;24.56;42.51;98374.88;7313780;19;129220;-38
2022/05/24 10:49:05;;;;;;;30.95;2.92;;;;;;;24.58;42.18;98371.03;7311749;19;129705;-40
2022/05/24 10:51:37;;;;;;;22.40;1.88;;;;;;;24.60;42.02;98376.09;7311848;19;129129;-39
2022/05/24 10:54:23;;;;;;;26.02;2.20;;;;;;;24.59;42.27;98380.56;7312307;19;129307;-38
2022/05/24 10:56:54;;;;;;;31.98;2.85;;;;;;;24.59;41.97;98370.06;7313045;19;130142;-38
2022/05/24 10:59:33;;;;;;;29.13;2.50;;;;;;;24.52;42.67;98361.28;7313209;19;129696;-39
2022/05/24 11:02:08;;;;;;;28.15;2.47;;;;;;;24.58;42.49;98372.88;7313524;19;128880;-39
2022/05/24 11:04:45;;;;;;;8.43;0.90;;;;;;;24.61;42.53;98377.75;7314015;19;129055;-40
2022/05/24 11:07:16;;;;;;;46.03;4.05;;;;;;;24.63;42.24;98391.50;7299371;19;131669;-38
2022/05/24 11:10:06;;;;;;;30.90;2.75;;;;;;;24.61;42.35;98386.41;7311083;19;129103;-40
2022/05/24 11:12:40;;;;;;;34.67;3.03;;;;;;;24.60;42.43;98392.69;7311651;19;129344;-39
2022/05/24 11:15:12;;;;;;;26.42;2.17;;;;;;;24.60;42.19;98420.78;7314163;19;128777;-39
2022/05/24 11:17:38;;;;;;;49.60;4.30;;;;;;;24.60;42.21;98408.47;7310055;19;130203;-38
2022/05/24 11:20:04;;;;;;;38.13;3.43;;;;;;;24.61;42.65;98404.03;7312456;19;158790;-38
2022/05/24 11:22:46;;;;;;;;;;;;;;;24.59;42.56;98406.03;7314535;19;130978;-40
2022/05/24 11:25:25;;;;;;;17.77;1.77;;;;;;;24.61;41.79;98404.81;7311842;19;129040;-39
2022/05/24 11:28:14;;;;;;;33.83;2.97;;;;;;;24.60;42.07;98403.19;7310961;19;130232;-38
2022/05/24 11:30:41;;;;;;;15.63;1.70;;;;;;;24.61;42.61;98409.28;7309395;19;130664;-39
2022/05/24 11:33:11;;;;;;;32.38;2.88;;;;;;;24.53;42.67;98396.28;7312055;19;130355;-40
2022/05/24 11:35:46;;;;;;;47.30;3.97;;;;;;;24.60;41.83;98397.13;7311728;19;130175;-41
2022/05/24 11:38:35;;;;;;;22.05;2.03;;;;;;;24.62;42.63;98395.13;7309994;19;130151;-38
2022/05/24 11:41:04;;;;;;;51.17;4.15;;;;;;;24.49;42.58;98378.22;7309744;19;130567;-37
2022/05/24 11:43:36;;;;;;;21.83;1.83;;;;;;;24.59;42.47;98391.06;7313278;19;129177;-40
2022/05/24 11:46:29;;;;;;;19.25;1.67;;;;;;;24.60;42.55;98386.59;7310815;19;154341;-38
2022/05/24 11:48:56;;;;;;;27.45;2.60;;;;;;;24.61;42.26;98393.50;7307566;19;129197;-39
2022/05/24 11:51:33;;;;;;;36.85;3.22;;;;;;;24.61;41.92;98394.31;7309334;19;130491;-37
2022/05/24 11:54:00;;;;;;;;;;;;;;;24.59;42.19;98411.28;7311307;19;130060;-40
2022/05/24 11:56:26;;;;;;;21.88;1.83;;;;;;;24.63;42.15;98402.00;7311997;19;129177;-38
2022/05/24 11:58:58;;;;;;;30.13;2.50;;;;;;;24.64;42.58;98414.16;7309282;19;130179;-39
2022/05/24 12:01:23;;;;;;;23.45;2.08;;;;;;;24.61;42.09;98417.16;7312272;19;130338;-38
2022/05/24 12:09:52;;;;;;;26.77;2.33;;;;;;;24.66;42.49;98438.44;7311459;19;129317;-38
2022/05/24 12:13:10;;;;;;;22.50;2.10;;;;;;;24.64;42.15;98429.94;7306050;19;158395;-38